Cox Field Paris US
ICAO: KPRX
IATA: PRX
Category: Medium
Scheduled Services: No

Elevation: 547 ft
TransAlt. 18000 ft.

Airport Communications:
AWOS 3:119.675
FORT WORTH CNTR:123.925
FORT WORTH RDO:122.25
CTAF/UNICOM:122.975

KPRX Zoom In..

Runways:

(A) RW 03 length 4624 ft width 150 ft
---- / hdg 33

(B) RW 14 length 4624 ft width 150 ft
---- / hdg 137

(C) RW 17 length 6002 ft width 100 ft
---- / hdg 175

(D) RW 21 length 4624 ft width 150 ft
---- / hdg 213

(E) RW 32 length 4624 ft width 150 ft
---- / hdg 317

(F) RW 35 length 6002 ft width 100 ft
---- / hdg 355

Location; KPRX
Day. 24 / Time. 01.56 Zulu
* Altimeter: 30.32
* Temperature: 06° c. 42.8°f.
* Wind from: 000° Speed 00 kn.
Dewpoint: -05° c.
Visibility: 10 Statute Miles.
Clouds: Clear (automated report).

KPRX 240156Z AUTO 00000KT 10SM CLR 06/M05 A3032 RMK AO2 SLP286 T00561050


Wind - Calm.

YouTube Music Video
 
jpsmedia.com for Web Design  worldairports.se 2018   terms of use